Time;durP1;ratioP1;P1;durP2;ratioP2;P2;SDS_P1;SDS_P2;PMS_P1;PMS_P2;Temp;Humidity;BMP_temperature;BMP_pressure;BME280_temperature;BME280_humidity;BME280_pressure;Samples;Min_cycle;Max_cycle;Signal;HPM_P1;HPM_P2
2021/11/02 00:01:03;;;;;;;4.60;1.80;;;;;;;3.90;89.37;96054.25;5019752;28;20049;-56
2021/11/02 00:03:31;;;;;;;6.07;2.10;;;;;;;3.88;89.73;96051.00;5024995;28;20046;-58
2021/11/02 00:05:58;;;;;;;4.88;2.13;;;;;;;3.98;90.04;96046.88;5025044;28;20038;-55
2021/11/02 00:08:24;;;;;;;3.92;1.60;;;;;;;4.07;89.91;96042.75;5025571;28;20509;-57
2021/11/02 00:10:51;;;;;;;4.60;1.95;;;;;;;4.23;89.64;96049.16;5024930;28;20045;-58
2021/11/02 00:13:21;;;;;;;3.70;1.80;;;;;;;4.36;89.37;96039.16;5025752;28;20042;-57
2021/11/02 00:15:51;;;;;;;4.00;2.17;;;;;;;4.53;89.27;96057.91;5025548;28;20067;-55
2021/11/02 00:18:19;;;;;;;5.00;1.80;;;;;;;4.69;89.10;96056.28;5025861;28;20055;-56
2021/11/02 00:20:45;;;;;;;5.90;1.92;;;;;;;4.95;88.25;96053.94;5025254;28;20056;-55
2021/11/02 00:23:12;;;;;;;5.68;1.63;;;;;;;5.12;87.34;96053.06;5025091;28;20481;-57
2021/11/02 00:25:39;;;;;;;5.10;2.13;;;;;;;5.15;87.06;96057.91;5025104;28;20045;-56
2021/11/02 00:28:05;;;;;;;3.60;1.80;;;;;;;5.15;87.02;96058.75;5025720;28;20049;-57
2021/11/02 00:30:32;;;;;;;8.07;2.28;;;;;;;5.11;87.02;96048.75;5024953;28;20041;-55
2021/11/02 00:32:59;;;;;;;4.75;1.67;;;;;;;5.06;87.20;96047.63;5025375;28;20037;-56
2021/11/02 00:35:26;;;;;;;4.18;2.03;;;;;;;5.05;87.38;96054.06;5025656;28;20072;-54
2021/11/02 00:37:53;;;;;;;4.75;1.90;;;;;;;5.11;86.96;96049.56;5025144;28;20099;-56
2021/11/02 00:40:22;;;;;;;6.40;2.20;;;;;;;5.20;86.66;96056.13;5025105;28;20785;-56
2021/11/02 00:42:54;;;;;;;4.97;1.98;;;;;;;5.26;86.55;96053.50;5023434;28;20810;-58
2021/11/02 00:45:31;;;;;;;5.78;1.92;;;;;;;5.21;86.69;96049.69;5024512;28;20120;-56
2021/11/02 00:48:05;;;;;;;5.90;1.83;;;;;;;5.24;86.81;96042.22;5023481;28;20083;-57
2021/11/02 00:50:34;;;;;;;3.67;1.73;;;;;;;5.30;86.54;96042.00;5024437;28;20448;-56
2021/11/02 00:53:02;;;;;;;5.53;1.77;;;;;;;5.27;86.94;96047.09;5025720;28;20038;-58
2021/11/02 00:55:28;;;;;;;6.07;1.95;;;;;;;5.20;87.27;96041.91;5025290;28;20045;-59
2021/11/02 00:57:56;;;;;;;5.15;2.05;;;;;;;5.17;87.61;96051.25;5023316;28;20496;-54
2021/11/02 01:00:24;;;;;;;3.63;1.60;;;;;;;5.19;87.61;96045.63;5024373;28;20048;-57
2021/11/02 01:02:51;;;;;;;4.45;2.10;;;;;;;5.27;87.29;96047.09;5024723;28;20244;-59
2021/11/02 01:05:18;;;;;;;4.20;1.58;;;;;;;5.28;87.54;96046.00;5025048;28;20041;-58
2021/11/02 01:07:45;;;;;;;5.95;1.80;;;;;;;5.33;87.72;96046.88;5025347;28;20053;-58
2021/11/02 01:10:15;;;;;;;4.43;1.65;;;;;;;5.42;87.24;96052.59;5024400;28;20041;-58
2021/11/02 01:12:47;;;;;;;3.85;1.52;;;;;;;5.45;87.37;96037.88;5023496;28;20047;-57
2021/11/02 01:15:16;;;;;;;;;;;;;;;5.51;87.76;96039.56;5025550;28;20057;-59
2021/11/02 01:17:42;;;;;;;4.13;1.58;;;;;;;5.52;87.72;96038.50;5036045;28;19925;-58
2021/11/02 01:20:11;;;;;;;3.22;1.52;;;;;;;5.56;87.68;96036.09;5019199;28;20493;-59
2021/11/02 01:22:41;;;;;;;2.85;1.30;;;;;;;5.77;86.79;96034.44;5025055;28;20128;-58
2021/11/02 01:25:09;;;;;;;3.28;1.40;;;;;;;5.86;86.34;96035.59;5026249;28;20041;-57
2021/11/02 01:27:36;;;;;;;4.82;1.60;;;;;;;5.95;85.63;96025.22;5027740;28;20650;-55
2021/11/02 01:30:05;;;;;;;4.05;1.25;;;;;;;5.96;86.08;96032.19;5028227;28;20115;-56
2021/11/02 01:32:32;;;;;;;3.75;1.25;;;;;;;6.01;85.71;96031.41;5027133;28;20029;-57
2021/11/02 01:35:00;;;;;;;4.80;1.63;;;;;;;5.92;86.20;96038.31;5028083;28;20049;-57
2021/11/02 01:37:31;;;;;;;4.63;1.48;;;;;;;5.85;86.95;96027.78;5026805;28;20038;-57
2021/11/02 01:40:03;;;;;;;3.80;1.38;;;;;;;5.82;87.05;96034.50;5028053;28;20045;-55
2021/11/02 01:42:29;;;;;;;4.35;1.40;;;;;;;6.00;86.28;96032.50;5027710;28;20069;-54
2021/11/02 01:44:59;;;;;;;3.53;1.30;;;;;;;6.03;85.78;96023.09;5026760;28;20049;-57
2021/11/02 01:47:27;;;;;;;3.15;1.50;;;;;;;5.84;86.15;96029.69;5027236;28;20061;-57
2021/11/02 01:49:53;;;;;;;3.40;1.30;;;;;;;5.80;86.35;96020.50;5028631;28;20141;-58
2021/11/02 01:52:22;;;;;;;5.68;1.60;;;;;;;5.80;86.28;96027.75;5023109;28;20064;-58
2021/11/02 01:54:50;;;;;;;4.32;1.40;;;;;;;5.88;85.87;96023.78;5022947;28;20064;-58
2021/11/02 01:57:16;;;;;;;3.03;1.52;;;;;;;5.86;85.91;96030.22;5027695;28;20586;-58
2021/11/02 01:59:43;;;;;;;3.25;1.30;;;;;;;5.88;85.65;96029.16;5026880;28;20048;-58
2021/11/02 02:02:31;;;;;;;3.97;1.50;;;;;;;5.77;85.65;96036.31;5026279;28;20755;-58
2021/11/02 02:05:10;;;;;;;6.93;1.80;;;;;;;5.66;86.19;96022.78;5026716;28;20052;-56
2021/11/02 02:08:22;;;;;;;3.95;1.95;;;;;;;5.65;86.11;96026.56;5026852;28;20526;-56
2021/11/02 02:10:49;;;;;;;5.97;1.77;;;;;;;5.66;86.18;96019.28;5026545;28;20515;-58
2021/11/02 02:13:40;;;;;;;6.03;2.00;;;;;;;5.66;85.96;96022.78;5026624;28;20048;-59
2021/11/02 02:16:16;;;;;;;5.93;1.85;;;;;;;5.64;85.79;96019.53;5027199;28;20140;-57
2021/11/02 02:19:20;;;;;;;3.72;1.60;;;;;;;5.60;86.28;96016.56;5026817;28;20049;-57
2021/11/02 02:21:54;;;;;;;3.03;1.50;;;;;;;5.50;86.25;96013.78;5024748;28;20531;-58
2021/11/02 02:24:48;;;;;;;5.43;2.20;;;;;;;5.29;87.06;96015.41;5026890;28;20457;-55
2021/11/02 02:27:44;;;;;;;4.10;1.70;;;;;;;5.14;87.72;96008.00;5025378;28;20096;-55
2021/11/02 02:30:16;;;;;;;4.53;2.47;;;;;;;5.11;87.75;96013.88;5017869;28;20046;-57
2021/11/02 02:32:51;;;;;;;5.70;2.13;;;;;;;5.13;87.65;96004.53;5013184;28;20042;-57
2021/11/02 02:35:22;;;;;;;6.15;2.13;;;;;;;5.03;87.88;96007.06;5027301;28;20058;-58
2021/11/02 02:37:52;;;;;;;5.30;2.28;;;;;;;4.95;88.27;96002.97;5025654;28;20622;-54
2021/11/02 02:40:19;;;;;;;6.70;2.13;;;;;;;4.89;88.36;96004.78;5027126;28;20037;-58
2021/11/02 02:42:48;;;;;;;6.97;2.50;;;;;;;4.93;88.32;95995.16;5020630;28;20583;-57
2021/11/02 02:45:18;;;;;;;4.20;1.90;;;;;;;5.00;87.76;96003.03;5020761;28;20048;-57
2021/11/02 02:47:47;;;;;;;5.10;1.92;;;;;;;4.96;87.71;96004.59;5025048;28;20045;-56
2021/11/02 02:50:18;;;;;;;6.43;2.28;;;;;;;4.81;88.07;95997.97;5017169;28;20137;-56
2021/11/02 02:52:48;;;;;;;5.13;2.20;;;;;;;4.72;88.66;96001.34;5025687;28;20048;-58
2021/11/02 02:55:16;;;;;;;4.88;1.80;;;;;;;4.70;88.37;96004.25;5022941;28;20107;-55
2021/11/02 02:57:44;;;;;;;3.28;1.98;;;;;;;4.68;88.43;95996.47;5025363;28;20037;-56
2021/11/02 03:00:15;;;;;;;5.65;2.03;;;;;;;4.60;88.80;95996.88;5022432;28;20046;-55
2021/11/02 03:02:44;;;;;;;3.20;1.63;;;;;;;4.52;88.85;96000.81;5012412;28;20563;-57
2021/11/02 03:05:13;;;;;;;3.17;1.88;;;;;;;4.72;87.97;96002.13;5006295;28;20129;-56
2021/11/02 03:07:42;;;;;;;4.57;1.98;;;;;;;4.87;87.43;95995.34;5021734;28;20051;-56
2021/11/02 03:10:09;;;;;;;4.53;2.03;;;;;;;4.99;87.01;96003.28;5025079;28;20591;-57
2021/11/02 03:12:42;;;;;;;3.70;1.90;;;;;;;4.96;86.85;95999.22;5024991;28;20044;-58
2021/11/02 03:15:41;;;;;;;7.20;2.15;;;;;;;4.64;87.85;95998.00;5024481;28;20049;-58
2021/11/02 03:54:35;;;;;;;5.85;2.40;;;;;;;3.82;90.13;96002.94;5021167;28;20046;-57
2021/11/02 05:07:10;;;;;;;6.30;2.72;;;;;;;1.82;91.26;96003.75;5024147;28;20455;-56
2021/11/02 05:51:34;;;;;;;6.05;2.88;;;;;;;1.10;91.91;96005.41;5021492;28;20529;-57
2021/11/02 05:56:32;;;;;;;5.95;2.78;;;;;;;1.12;91.96;96008.66;5022770;28;20052;-58
2021/11/02 05:59:25;;;;;;;7.68;3.03;;;;;;;1.14;91.61;95999.38;5020319;28;20065;-56
2021/11/02 06:01:59;;;;;;;5.40;2.88;;;;;;;0.94;91.37;96001.50;5020240;28;20152;-57
2021/11/02 06:04:46;;;;;;;3.95;2.47;;;;;;;0.85;91.29;96001.00;5010791;28;20042;-54
2021/11/02 06:07:44;;;;;;;6.47;2.90;;;;;;;0.92;92.28;96001.72;5024641;28;20121;-56
2021/11/02 06:30:04;;;;;;;6.85;2.90;;;;;;;0.85;91.75;96009.78;5024699;28;20075;-53
2021/11/02 06:32:38;;;;;;;5.07;2.53;;;;;;;0.80;91.30;96003.53;5021427;28;20037;-56
2021/11/02 06:37:54;;;;;;;6.15;2.88;;;;;;;0.79;91.63;96005.38;5025008;28;20080;-57
2021/11/02 06:45:58;;;;;;;5.18;3.00;;;;;;;1.00;92.08;96003.28;5019982;28;20478;-58
2021/11/02 08:48:29;;;;;;;6.38;1.20;;;;;;;7.00;81.11;96013.25;5017164;28;20037;-55
2021/11/02 08:50:59;;;;;;;3.00;1.27;;;;;;;6.90;81.07;96017.53;5022437;28;20671;-57
2021/11/02 08:53:27;;;;;;;3.97;1.10;;;;;;;6.96;81.10;96004.91;5021851;28;20048;-55
2021/11/02 08:55:55;;;;;;;3.47;1.30;;;;;;;7.02;80.30;96005.75;5024399;28;20041;-57
2021/11/02 08:58:28;;;;;;;4.18;1.10;;;;;;;7.00;80.41;96013.25;5023899;28;20091;-57
2021/11/02 09:00:56;;;;;;;4.18;1.30;;;;;;;6.95;80.64;96019.44;5020231;28;20060;-57
2021/11/02 09:03:29;;;;;;;4.05;1.10;;;;;;;6.96;80.58;96007.59;5022888;28;20037;-50
2021/11/02 09:06:07;;;;;;;2.22;1.13;;;;;;;6.95;80.29;96021.31;5024017;28;20041;-54
2021/11/02 09:08:42;;;;;;;4.32;1.42;;;;;;;6.87;81.06;96011.88;5012186;28;20172;-53
2021/11/02 09:11:12;;;;;;;2.10;1.20;;;;;;;6.92;80.26;96017.28;5006255;28;20128;-55
2021/11/02 09:13:45;;;;;;;2.55;1.15;;;;;;;6.80;81.59;96017.50;5014326;28;20084;-53
2021/11/02 09:16:14;;;;;;;4.30;1.42;;;;;;;6.77;80.77;96015.31;5025364;28;20128;-55
2021/11/02 09:18:46;;;;;;;4.30;1.20;;;;;;;6.61;82.17;96015.25;5024794;28;20041;-51
2021/11/02 09:21:15;;;;;;;6.13;1.60;;;;;;;6.58;82.04;96015.75;5025438;28;20420;-56
2021/11/02 09:23:44;;;;;;;6.47;1.45;;;;;;;6.45;83.19;96021.59;5025850;28;20048;-55
2021/11/02 09:26:11;;;;;;;4.40;0.98;;;;;;;6.44;83.58;96015.38;5025296;28;20449;-56
2021/11/02 09:28:38;;;;;;;2.92;1.25;;;;;;;6.55;83.12;96018.13;5037429;28;20044;-55
2021/11/02 09:31:05;;;;;;;2.13;1.25;;;;;;;6.53;83.23;96023.78;5045202;28;20053;-57
2021/11/02 09:33:32;;;;;;;3.92;1.25;;;;;;;6.55;84.71;96016.25;5025408;28;20080;-54
2021/11/02 09:36:00;;;;;;;5.22;1.23;;;;;;;6.53;84.05;96018.41;5025219;28;20072;-55
2021/11/02 09:38:34;;;;;;;7.20;1.75;;;;;;;6.48;84.13;96026.44;5011787;28;20052;-55
2021/11/02 09:41:47;;;;;;;3.50;1.00;;;;;;;6.40;85.24;96016.16;5009015;28;20042;-57
2021/11/02 09:44:15;;;;;;;;;;;;;;;6.57;85.07;96019.53;4986673;28;20053;-56
2021/11/02 09:47:23;;;;;;;4.30;1.60;;;;;;;6.53;85.27;96021.09;5007023;28;19927;-54
2021/11/02 09:50:11;;;;;;;2.78;1.15;;;;;;;6.55;84.96;96018.94;5009817;28;20046;-55
2021/11/02 09:53:14;;;;;;;3.55;1.67;;;;;;;6.55;85.53;96027.03;5028241;28;20523;-57
2021/11/02 09:55:53;;;;;;;5.63;1.73;;;;;;;6.74;84.69;96022.03;5028932;28;20044;-51
2021/11/02 09:58:39;;;;;;;9.77;1.88;;;;;;;6.73;84.84;96019.59;5028844;28;20041;-53
2021/11/02 10:01:24;;;;;;;3.53;1.23;;;;;;;6.75;85.44;96020.16;5028869;28;20048;-56
2021/11/02 10:04:08;;;;;;;4.20;1.20;;;;;;;6.80;83.90;96017.50;5029356;28;20049;-53
2021/11/02 10:07:00;;;;;;;3.22;0.95;;;;;;;6.86;84.51;96019.13;5028628;28;20077;-54
2021/11/02 10:09:38;;;;;;;2.55;0.90;;;;;;;6.84;84.68;96012.38;5009558;28;20068;-50
2021/11/02 10:12:15;;;;;;;2.53;1.20;;;;;;;6.83;85.26;96019.66;5008499;28;20469;-54
2021/11/02 10:14:50;;;;;;;3.13;1.17;;;;;;;6.88;84.69;96018.88;5008906;28;20038;-52
2021/11/02 10:17:26;;;;;;;3.40;1.10;;;;;;;6.75;84.14;96020.16;5010520;28;20488;-51
2021/11/02 10:20:03;;;;;;;3.10;1.35;;;;;;;6.61;84.87;96011.72;5028542;28;20115;-55
2021/11/02 10:23:04;;;;;;;3.45;1.38;;;;;;;6.72;85.52;96013.41;5015907;28;20610;-54
2021/11/02 10:25:58;;;;;;;4.32;1.58;;;;;;;6.67;84.67;96013.38;5017064;28;20045;-56
2021/11/02 10:28:37;;;;;;;1.92;0.77;;;;;;;6.80;83.89;96008.59;5020461;28;20080;-57
2021/11/02 10:31:31;;;;;;;3.90;1.40;;;;;;;6.80;84.75;96014.78;5025620;28;20045;-55
2021/11/02 10:34:21;;;;;;;1.50;0.80;;;;;;;6.73;84.60;96014.22;5017753;28;20115;-55
2021/11/02 10:37:03;;;;;;;4.63;0.95;;;;;;;6.79;84.63;96015.06;5024644;28;20087;-56
2021/11/02 10:39:40;;;;;;;4.47;1.20;;;;;;;6.83;84.46;96011.59;5024395;28;20059;-57
2021/11/02 10:42:28;;;;;;;3.95;1.50;;;;;;;6.92;84.80;96011.88;5026131;28;20842;-56
2021/11/02 10:45:17;;;;;;;4.93;1.38;;;;;;;7.04;84.34;96008.97;5016527;28;20048;-53
2021/11/02 10:48:11;;;;;;;3.47;1.42;;;;;;;7.27;83.99;96009.63;5023636;28;20053;-52
2021/11/02 10:50:48;;;;;;;3.20;1.00;;;;;;;7.11;83.37;96012.25;5013350;28;20575;-54
2021/11/02 10:53:30;;;;;;;2.85;0.93;;;;;;;7.13;84.17;96011.97;5024133;28;20056;-53
2021/11/02 10:56:31;;;;;;;3.55;1.08;;;;;;;7.30;83.75;96003.72;5021923;28;20071;-55
2021/11/02 10:59:01;;;;;;;3.95;0.90;;;;;;;7.39;83.43;96006.69;5002119;28;20061;-54
2021/11/02 11:01:30;;;;;;;1.50;0.82;;;;;;;7.37;83.25;96001.56;5024828;28;20540;-54
2021/11/02 11:04:00;;;;;;;3.05;0.90;;;;;;;7.59;83.38;96011.31;5025626;28;20107;-53
2021/11/02 11:06:29;;;;;;;2.17;1.02;;;;;;;7.73;81.05;96008.09;5025065;28;20041;-52
2021/11/02 11:08:58;;;;;;;2.30;0.95;;;;;;;7.67;81.40;96001.91;5022006;28;20042;-54
2021/11/02 11:11:31;;;;;;;1.25;0.70;;;;;;;7.77;80.07;96001.91;5032078;28;20073;-54
2021/11/02 11:14:09;;;;;;;1.33;0.60;;;;;;;7.70;81.06;95997.88;5012060;28;20056;-55
2021/11/02 11:16:39;;;;;;;1.10;0.70;;;;;;;7.76;81.36;96002.16;5021189;28;20053;-54
2021/11/02 11:19:33;;;;;;;2.25;0.82;;;;;;;7.84;79.91;96006.22;5014968;28;20045;-53
2021/11/02 11:22:01;;;;;;;1.88;0.80;;;;;;;7.78;80.23;96008.13;5014583;28;20515;-56
2021/11/02 11:24:39;;;;;;;2.50;0.90;;;;;;;7.81;81.71;96010.25;5024764;28;20077;-56
2021/11/02 11:27:08;;;;;;;1.35;0.82;;;;;;;7.86;79.72;96010.28;5024779;28;20097;-56
2021/11/02 11:29:44;;;;;;;2.33;0.80;;;;;;;7.97;79.65;96016.50;5024744;28;20049;-57
2021/11/02 11:32:15;;;;;;;2.90;0.88;;;;;;;7.94;79.37;96006.25;5024084;28;20053;-56
2021/11/02 11:34:45;;;;;;;3.42;0.95;;;;;;;7.92;79.12;96011.88;5012416;28;20043;-55
2021/11/02 11:37:14;;;;;;;0.85;0.60;;;;;;;8.13;78.92;96008.38;5017653;28;20079;-54
2021/11/02 11:39:44;;;;;;;1.42;0.70;;;;;;;8.27;78.83;96001.38;5025040;28;20079;-54
2021/11/02 11:42:18;;;;;;;2.40;0.80;;;;;;;8.22;79.67;96000.59;5022290;28;20045;-55
2021/11/02 11:44:52;;;;;;;2.60;0.73;;;;;;;8.12;79.52;95999.50;5023752;28;20048;-56
2021/11/02 11:47:24;;;;;;;1.95;0.85;;;;;;;8.18;78.78;95994.91;5014259;28;20045;-54
2021/11/02 11:49:52;;;;;;;2.15;0.85;;;;;;;8.25;77.72;95997.34;5023639;28;20045;-53
2021/11/02 11:52:24;;;;;;;2.60;0.90;;;;;;;8.43;77.02;95996.78;5023992;28;20053;-54
2021/11/02 11:54:53;;;;;;;1.65;0.60;;;;;;;8.71;76.43;95991.88;5024711;28;20361;-55
2021/11/02 11:57:29;;;;;;;2.17;0.70;;;;;;;8.81;76.37;95992.97;5024938;28;20045;-56
2021/11/02 12:00:11;;;;;;;0.75;0.40;;;;;;;8.78;73.74;95983.53;5024589;28;20049;-54
2021/11/02 12:03:05;;;;;;;0.65;0.47;;;;;;;8.55;76.16;95985.72;5022680;28;20067;-53
2021/11/02 12:05:40;;;;;;;0.80;0.30;;;;;;;8.51;74.83;95983.84;5023544;28;20057;-54
2021/11/02 12:08:20;;;;;;;2.38;0.40;;;;;;;8.37;76.59;95983.56;5024450;28;20129;-56
2021/11/02 12:10:50;;;;;;;0.45;0.20;;;;;;;8.42;75.03;95981.69;5021883;28;20404;-57
2021/11/02 12:13:18;;;;;;;0.45;0.30;;;;;;;8.34;77.25;95979.53;5024001;28;20061;-55
2021/11/02 12:16:06;;;;;;;0.50;0.35;;;;;;;8.37;75.67;95980.88;5024302;28;20049;-56
2021/11/02 12:18:41;;;;;;;0.25;0.20;;;;;;;8.16;76.28;95987.09;5023786;28;20058;-57
2021/11/02 12:21:17;;;;;;;0.28;0.28;;;;;;;8.35;74.88;95983.03;5024148;28;20045;-54
2021/11/02 12:23:48;;;;;;;1.05;0.35;;;;;;;8.61;75.44;95985.72;5026459;28;20044;-55
2021/11/02 12:26:14;;;;;;;0.30;0.20;;;;;;;8.55;74.41;95980.31;5024931;28;20037;-53
2021/11/02 12:28:46;;;;;;;0.25;0.13;;;;;;;8.75;72.32;95977.84;5026483;28;20052;-51
2021/11/02 12:31:15;;;;;;;0.10;0.10;;;;;;;8.69;70.65;95974.34;5024264;28;20060;-57
2021/11/02 12:33:47;;;;;;;0.15;0.10;;;;;;;8.45;73.88;95978.41;5021023;28;20616;-55
2021/11/02 12:36:21;;;;;;;0.32;0.10;;;;;;;8.61;72.20;95975.72;5022644;28;20159;-54
2021/11/02 12:38:48;;;;;;;0.30;0.30;;;;;;;8.67;73.61;95984.63;5019865;28;20536;-55
2021/11/02 12:41:23;;;;;;;0.43;0.20;;;;;;;8.65;73.07;95993.00;5023544;28;20057;-55
2021/11/02 12:44:06;;;;;;;0.08;0.08;;;;;;;8.79;73.54;95989.72;5023414;28;20049;-54
2021/11/02 12:46:34;;;;;;;0.20;0.10;;;;;;;8.96;71.44;95990.19;5024090;28;20041;-52
2021/11/02 12:49:06;;;;;;;0.10;0.10;;;;;;;8.78;70.77;95996.19;5020842;28;20099;-54
2021/11/02 12:51:36;;;;;;;0.20;0.10;;;;;;;8.79;71.26;95992.41;5023419;28;20046;-52
2021/11/02 12:54:08;;;;;;;0.93;0.10;;;;;;;8.97;71.01;95991.84;5023452;28;20049;-52
2021/11/02 12:56:40;;;;;;;0.32;0.22;;;;;;;9.13;70.27;95989.06;5011753;28;20611;-53
2021/11/02 12:59:19;;;;;;;2.40;0.30;;;;;;;8.91;71.08;95984.81;5023481;28;20120;-57
2021/11/02 13:01:50;;;;;;;1.30;0.20;;;;;;;9.09;73.26;95985.28;5023555;28;20037;-57
2021/11/02 13:04:17;;;;;;;0.05;0.00;;;;;;;8.95;70.08;95985.06;5022303;28;20049;-59
2021/11/02 13:06:52;;;;;;;1.35;0.20;;;;;;;9.14;69.88;95979.84;5023369;28;20049;-53
2021/11/02 13:09:32;;;;;;;0.17;0.15;;;;;;;9.15;69.61;95978.78;5023586;28;20041;-57
2021/11/02 13:12:04;;;;;;;0.45;0.17;;;;;;;9.45;70.72;95982.44;5023735;28;20045;-56
2021/11/02 13:14:44;;;;;;;0.45;0.10;;;;;;;9.65;67.06;95980.66;5024292;28;20041;-57
2021/11/02 13:17:16;;;;;;;0.10;0.10;;;;;;;9.68;67.60;95979.28;5027733;28;20535;-53
2021/11/02 13:19:47;;;;;;;0.30;0.10;;;;;;;9.50;67.99;95974.28;5021916;28;20594;-58
2021/11/02 13:22:22;;;;;;;0.70;0.20;;;;;;;9.45;67.22;95977.03;5023197;28;20041;-57
2021/11/02 13:24:57;;;;;;;0.08;0.08;;;;;;;9.27;66.41;95983.88;5024591;28;20568;-57
2021/11/02 13:27:41;;;;;;;0.73;0.15;;;;;;;9.15;67.87;95978.78;5022379;28;20091;-54
2021/11/02 13:30:38;;;;;;;0.20;0.10;;;;;;;9.22;66.97;95976.59;5027543;28;20467;-55
2021/11/02 13:33:12;;;;;;;0.65;0.30;;;;;;;9.08;67.20;95980.97;5026804;28;20068;-57
2021/11/02 13:35:47;;;;;;;0.55;0.20;;;;;;;8.89;67.42;95983.47;5026982;28;20045;-56
2021/11/02 13:38:26;;;;;;;0.82;0.20;;;;;;;8.90;67.42;95985.91;5027719;28;20681;-57
2021/11/02 13:41:14;;;;;;;0.10;0.10;;;;;;;8.99;67.29;95983.44;5042187;28;20045;-53
2021/11/02 13:43:42;;;;;;;0.95;0.28;;;;;;;9.41;67.07;95994.88;5010631;28;20559;-56
2021/11/02 13:46:11;;;;;;;0.93;0.35;;;;;;;9.26;67.72;95987.66;5026972;28;20707;-57
2021/11/02 13:48:39;;;;;;;1.08;0.30;;;;;;;10.09;66.56;95984.41;5026912;28;20048;-57
2021/11/02 13:51:08;;;;;;;0.77;0.32;;;;;;;11.00;61.77;95981.38;5027237;28;20041;-50
2021/11/02 13:53:35;;;;;;;1.42;0.30;;;;;;;10.60;63.05;95982.38;5026948;28;20037;-57
2021/11/02 13:56:14;;;;;;;0.10;0.10;;;;;;;10.33;63.67;95980.97;5027355;28;20480;-55
2021/11/02 13:58:41;;;;;;;0.75;0.20;;;;;;;10.49;64.17;95972.72;5027652;28;20049;-57
2021/11/02 14:01:17;;;;;;;0.20;0.17;;;;;;;10.90;62.33;95971.47;5026815;28;20125;-55
2021/11/02 14:03:50;;;;;;;0.65;0.20;;;;;;;10.41;65.29;95984.94;5023885;28;20069;-57
2021/11/02 14:06:20;;;;;;;1.55;0.20;;;;;;;12.04;59.03;95977.25;5017698;28;20052;-57
2021/11/02 14:08:48;;;;;;;2.80;0.20;;;;;;;11.12;61.78;95987.19;5024269;28;20037;-58
2021/11/02 14:11:23;;;;;;;0.10;0.10;;;;;;;10.07;64.95;95988.50;5026256;28;20041;-53
2021/11/02 14:13:53;;;;;;;0.15;0.10;;;;;;;9.78;65.95;95983.84;5027020;28;20053;-55
2021/11/02 14:16:41;;;;;;;0.68;0.30;;;;;;;9.15;67.63;95992.28;5026969;28;20730;-57
2021/11/02 14:19:33;;;;;;;1.77;0.63;;;;;;;9.40;66.47;95990.53;5018524;28;20053;-53
2021/11/02 14:22:03;;;;;;;0.75;0.22;;;;;;;10.23;63.01;95997.28;5027075;28;20143;-57
2021/11/02 14:24:32;;;;;;;0.75;0.20;;;;;;;11.52;59.53;95997.81;5025033;28;20532;-56
2021/11/02 14:27:00;;;;;;;0.35;0.10;;;;;;;11.65;58.79;95988.13;5026426;28;20045;-58
2021/11/02 14:29:52;;;;;;;0.63;0.30;;;;;;;12.00;58.96;95987.91;5026884;28;20103;-55
2021/11/02 14:32:40;;;;;;;0.30;0.20;;;;;;;11.87;55.56;96003.00;5025030;28;20045;-56
2021/11/02 14:35:10;;;;;;;0.70;0.40;;;;;;;11.57;56.71;96007.75;5026007;28;20057;-55
2021/11/02 14:37:47;;;;;;;0.20;0.10;;;;;;;10.94;56.93;96005.00;5025778;28;20057;-57
2021/11/02 14:40:42;;;;;;;0.30;0.30;;;;;;;12.59;54.22;96006.50;5026078;28;20060;-57
2021/11/02 14:43:15;;;;;;;1.08;0.30;;;;;;;12.01;54.78;96010.41;5023530;28;20880;-58
2021/11/02 14:45:59;;;;;;;0.10;0.10;;;;;;;13.30;51.03;96009.25;5026040;28;20460;-56
2021/11/02 14:48:27;;;;;;;0.40;0.10;;;;;;;13.90;49.26;96010.19;5026109;28;20427;-58
2021/11/02 14:51:01;;;;;;;0.40;0.20;;;;;;;13.95;48.87;96015.50;5025459;28;20045;-56
2021/11/02 14:53:37;;;;;;;1.63;0.38;;;;;;;12.38;52.52;96014.19;5025964;28;20863;-56
2021/11/02 14:56:08;;;;;;;0.80;0.45;;;;;;;12.56;53.38;96009.81;5025889;28;20543;-58
2021/11/02 14:58:50;;;;;;;2.47;0.28;;;;;;;12.18;53.59;96007.19;5026118;28;20075;-56
2021/11/02 15:01:22;;;;;;;;;;;;;;;10.14;59.65;96013.31;5025793;28;20121;-56
2021/11/02 15:04:27;;;;;;;0.28;0.20;;;;;;;9.35;61.88;96018.41;5025208;28;20043;-57
2021/11/02 15:06:56;;;;;;;0.98;0.20;;;;;;;9.17;62.89;96016.31;5021056;28;20644;-59
2021/11/02 15:09:26;;;;;;;0.60;0.10;;;;;;;9.03;64.16;96019.59;5021576;28;20045;-57
2021/11/02 15:11:53;;;;;;;1.98;0.30;;;;;;;8.80;65.17;96010.22;5025630;28;20136;-57
2021/11/02 15:14:25;;;;;;;1.33;0.40;;;;;;;8.77;65.29;96008.88;5025592;28;20072;-55
2021/11/02 15:16:58;;;;;;;0.95;0.40;;;;;;;8.73;65.59;96012.41;5024904;28;20051;-54
2021/11/02 15:19:30;;;;;;;2.15;0.30;;;;;;;8.69;66.75;96012.13;5025945;28;20451;-56
2021/11/02 15:22:08;;;;;;;0.75;0.30;;;;;;;8.36;68.20;96011.63;5025022;28;20045;-57
2021/11/02 15:24:37;;;;;;;0.82;0.22;;;;;;;8.14;69.23;96013.50;5015465;28;20191;-57
2021/11/02 15:27:09;;;;;;;0.80;0.30;;;;;;;8.14;69.10;96024.31;5027502;28;20030;-55
2021/11/02 15:29:58;;;;;;;1.13;0.30;;;;;;;8.03;69.78;96025.38;5027162;28;20049;-57
2021/11/02 15:32:28;;;;;;;1.95;0.45;;;;;;;7.89;70.96;96019.72;5027004;28;20041;-56
2021/11/02 15:34:58;;;;;;;0.93;0.40;;;;;;;7.89;70.98;96025.09;5026347;28;20128;-56
2021/11/02 15:37:37;;;;;;;0.68;0.30;;;;;;;7.80;71.77;96022.94;5027207;28;20409;-57
2021/11/02 15:40:13;;;;;;;0.40;0.32;;;;;;;7.80;72.15;96024.81;5024985;28;20125;-56
2021/11/02 15:42:47;;;;;;;0.60;0.40;;;;;;;7.76;72.95;96029.94;5023222;28;20630;-55
2021/11/02 15:45:35;;;;;;;;;;;;;;;7.64;74.83;96038.28;5025425;28;20053;-55
2021/11/02 15:48:08;;;;;;;0.82;0.30;;;;;;;7.56;75.49;96044.19;5024204;28;20644;-57
2021/11/02 15:50:40;;;;;;;1.13;0.50;;;;;;;7.67;75.33;96048.50;5023757;28;20049;-58
2021/11/02 15:53:09;;;;;;;0.52;0.38;;;;;;;7.52;75.78;96051.16;5024837;28;20052;-56
2021/11/02 15:55:37;;;;;;;1.45;0.80;;;;;;;7.60;75.04;96047.13;5032378;28;20655;-56
2021/11/02 15:58:06;;;;;;;1.33;0.60;;;;;;;7.65;74.98;96050.66;5028789;28;20136;-56
2021/11/02 16:00:44;;;;;;;1.13;0.50;;;;;;;7.47;75.97;96046.56;5041882;28;20102;-56
2021/11/02 16:03:12;;;;;;;0.75;0.40;;;;;;;7.35;76.33;96051.38;5027877;28;20581;-55
2021/11/02 16:05:42;;;;;;;1.75;0.70;;;;;;;7.53;75.41;96063.56;5026000;28;20049;-57
2021/11/02 16:08:20;;;;;;;3.65;1.27;;;;;;;7.60;75.64;96056.03;5015703;28;20116;-57
2021/11/02 16:11:23;;;;;;;3.03;0.95;;;;;;;7.55;76.23;96059.53;5009882;28;20129;-57
2021/11/02 16:13:50;;;;;;;2.70;0.90;;;;;;;7.52;76.30;96068.13;4992877;28;20054;-57
2021/11/02 16:16:17;;;;;;;1.60;0.90;;;;;;;7.57;75.76;96075.41;5015654;28;20060;-53
2021/11/02 16:18:43;;;;;;;1.67;0.80;;;;;;;7.49;76.20;96076.72;5022887;28;20049;-56
2021/11/02 16:21:10;;;;;;;1.27;0.47;;;;;;;7.58;75.86;96079.72;5021054;28;20049;-58
2021/11/02 16:23:48;;;;;;;1.15;0.32;;;;;;;7.56;75.53;96079.19;5022639;28;20045;-52
2021/11/02 16:26:21;;;;;;;1.50;0.40;;;;;;;7.55;74.72;96077.56;5021898;28;20862;-56
2021/11/02 16:28:49;;;;;;;1.30;0.40;;;;;;;7.61;73.92;96070.31;5023459;28;20041;-57
2021/11/02 16:31:27;;;;;;;4.10;0.82;;;;;;;7.47;74.87;96072.66;5019003;28;20045;-55
2021/11/02 16:33:55;;;;;;;0.98;0.40;;;;;;;7.33;75.07;96070.47;5018950;28;20045;-56
2021/11/02 16:36:28;;;;;;;1.48;0.43;;;;;;;7.32;74.91;96076.94;5017777;28;20045;-61
2021/11/02 16:39:22;;;;;;;0.80;0.52;;;;;;;7.09;76.43;96070.09;5009154;28;20053;-53
2021/11/02 16:41:53;;;;;;;0.52;0.28;;;;;;;6.88;77.92;96069.97;5015045;28;20137;-56
2021/11/02 16:44:32;;;;;;;1.05;0.40;;;;;;;6.64;79.16;96065.81;5022522;28;20050;-57
2021/11/02 16:47:09;;;;;;;1.75;0.47;;;;;;;6.43;80.84;96074.78;5019701;28;20060;-54
2021/11/02 16:49:38;;;;;;;2.05;0.70;;;;;;;6.26;81.13;96078.44;5022770;28;20042;-57
2021/11/02 16:52:07;;;;;;;0.80;0.40;;;;;;;6.17;80.76;96078.09;5017137;28;20046;-56
2021/11/02 16:54:40;;;;;;;1.50;0.70;;;;;;;5.76;82.10;96077.66;5021080;28;20041;-58
2021/11/02 16:57:09;;;;;;;2.03;0.90;;;;;;;5.69;82.16;96086.75;5023631;28;20603;-54
2021/11/02 16:59:38;;;;;;;1.35;0.77;;;;;;;5.35;84.78;96084.22;5022438;28;20041;-55
2021/11/02 17:02:26;;;;;;;2.30;0.55;;;;;;;5.32;83.41;96092.75;5022886;28;20061;-57
2021/11/02 17:05:16;;;;;;;0.77;0.50;;;;;;;5.19;83.56;96089.38;5023070;28;20041;-55
2021/11/02 17:07:47;;;;;;;2.20;0.80;;;;;;;4.91;83.81;96093.84;5021486;28;20041;-55
2021/11/02 17:10:27;;;;;;;1.17;0.50;;;;;;;4.57;85.99;96093.09;5023608;28;20041;-56
2021/11/02 17:13:03;;;;;;;3.30;0.80;;;;;;;4.55;86.08;96090.66;5023310;28;20041;-57
2021/11/02 17:15:37;;;;;;;8.30;1.00;;;;;;;4.23;87.00;96099.25;5023768;28;20049;-54